Faulkner, Maryland
Current Conditions -  °F | °C
As of 12:56 AM on Wednesday 22 Oct 2014 (Local Time) from KNYG Reporting Station
Overcast Overcast  
Wind Chill: 53°   Ceiling: 7000
Heat Index: 53°   Visibility: 10mi
Dew Point: 49°   Wind: 10mph
Humidity: 86%   Direction: 340°NNW
Pressure: 29.9"   Gusts: NA
Location:  38.44°N, 76.98°W
Report Text: KNYG 220456Z AUTO 34009KT 10SM BKN070 OVC120 12/09 A2990 RMK AO2 SLP126 T01170094 402170106 $
Loading
Personal Weather Stations






























Interactive Weather Map
Tropical Storm Tracking
New forecast layout! Learn more

10-Day Weather Forecast

Advertisements
Track Severe Weather on mobile